createdAt,value
2023-02-28T00:01:14.840Z,27.91
2023-02-28T00:05:14.925Z,27.28
2023-02-28T00:09:15.211Z,25.07
2023-02-28T00:13:15.040Z,28.38
2023-02-28T00:17:15.087Z,25.32
2023-02-28T00:21:15.194Z,26.26
2023-02-28T00:25:15.248Z,25.76
2023-02-28T00:29:15.285Z,27.08
2023-02-28T00:33:15.384Z,27.84
2023-02-28T00:37:15.421Z,27.21
2023-02-28T00:41:15.528Z,27.60
2023-02-28T00:45:15.588Z,29.42
2023-02-28T00:49:15.681Z,26.77
2023-02-28T00:53:15.733Z,29.24
2023-02-28T00:57:15.801Z,27.84
2023-02-28T01:01:15.926Z,28.04
2023-02-28T01:05:17.087Z,27.16
2023-02-28T01:09:16.055Z,27.98
2023-02-28T01:13:16.105Z,28.15
2023-02-28T01:17:16.158Z,25.00
2023-02-28T01:21:16.286Z,26.41
2023-02-28T01:25:16.472Z,25.12
2023-02-28T01:29:16.466Z,26.92
2023-02-28T01:33:16.508Z,26.55
2023-02-28T01:37:16.620Z,29.51
2023-02-28T01:41:16.721Z,27.99
2023-02-28T01:45:16.803Z,25.85
2023-02-28T01:49:16.897Z,28.44
2023-02-28T01:53:17.035Z,26.97
2023-02-28T01:57:17.142Z,26.78
2023-02-28T02:01:17.284Z,26.89
2023-02-28T02:05:17.325Z,26.97
2023-02-28T02:09:17.450Z,26.17
2023-02-28T02:13:17.598Z,27.11
2023-02-28T02:17:17.734Z,29.69
2023-02-28T02:21:17.847Z,27.87
2023-02-28T02:25:17.984Z,26.16
2023-02-28T02:29:18.105Z,28.41
2023-02-28T02:33:18.249Z,26.44
2023-02-28T02:37:18.378Z,27.45
2023-02-28T02:41:18.507Z,27.79
2023-02-28T02:45:18.661Z,29.80
2023-02-28T02:49:18.780Z,26.48
2023-02-28T02:53:18.926Z,28.74
2023-02-28T02:57:19.057Z,27.47
2023-02-28T03:01:19.213Z,26.67
2023-02-28T03:05:19.332Z,27.08
2023-02-28T03:09:19.520Z,27.78
2023-02-28T03:13:19.675Z,25.70
2023-02-28T03:17:19.818Z,28.98
2023-02-28T03:21:19.934Z,29.06
2023-02-28T03:25:20.165Z,28.03
2023-02-28T03:29:20.300Z,28.89
2023-02-28T03:33:20.462Z,28.64
2023-02-28T03:37:20.741Z,26.60
2023-02-28T03:41:20.832Z,26.82
2023-02-28T03:45:21.044Z,27.25
2023-02-28T03:49:21.224Z,25.58
2023-02-28T03:53:21.385Z,27.60
2023-02-28T03:57:21.530Z,27.65
2023-02-28T04:01:21.810Z,27.56
2023-02-28T04:05:21.954Z,27.72
2023-02-28T04:09:22.053Z,28.69
2023-02-28T04:13:22.844Z,27.40
2023-02-28T04:17:22.479Z,27.45
2023-02-28T04:21:22.654Z,28.31
2023-02-28T04:25:22.827Z,25.50
2023-02-28T04:29:23.049Z,27.59
2023-02-28T04:33:23.293Z,26.00
2023-02-28T04:37:23.430Z,25.86
2023-02-28T04:41:23.747Z,28.17
2023-02-28T04:45:24.304Z,27.74
2023-02-28T04:49:24.054Z,29.93
2023-02-28T04:53:24.229Z,27.01
2023-02-28T04:57:24.443Z,27.59
2023-02-28T05:01:24.622Z,27.01
2023-02-28T05:05:24.835Z,26.86
2023-02-28T05:09:25.080Z,27.77
2023-02-28T05:13:25.294Z,28.26
2023-02-28T05:17:25.484Z,26.17
2023-02-28T05:21:25.684Z,28.37
2023-02-28T05:25:25.682Z,25.53
2023-02-28T05:29:25.641Z,26.10
2023-02-28T05:33:25.601Z,28.27
2023-02-28T05:37:25.562Z,28.73
2023-02-28T05:41:25.540Z,25.28
2023-02-28T05:45:25.457Z,26.38
2023-02-28T05:49:25.434Z,27.11
2023-02-28T05:53:25.395Z,25.16
2023-02-28T05:57:25.387Z,26.87
2023-02-28T06:01:25.337Z,30.08
2023-02-28T06:05:25.553Z,26.96
2023-02-28T06:09:25.765Z,27.59
2023-02-28T06:13:25.976Z,28.51
2023-02-28T06:17:26.151Z,28.06
2023-02-28T06:21:26.361Z,26.55
2023-02-28T06:25:26.555Z,27.19
2023-02-28T06:29:26.770Z,27.53
2023-02-28T06:33:26.956Z,30.16
2023-02-28T06:37:27.083Z,30.17
2023-02-28T06:41:27.668Z,33.82
2023-02-28T06:45:27.878Z,39.47
2023-02-28T06:49:27.872Z,45.02
2023-02-28T06:53:27.880Z,56.39
2023-02-28T06:57:27.429Z,71.52
2023-02-28T07:01:28.049Z,78.87
2023-02-28T07:05:27.850Z,89.30
2023-02-28T07:09:27.502Z,95.96
2023-02-28T07:13:27.458Z,106.13
2023-02-28T07:17:27.457Z,110.75
2023-02-28T07:21:28.771Z,116.50
2023-02-28T07:25:27.363Z,124.43
2023-02-28T07:29:27.700Z,129.74
2023-02-28T07:33:27.293Z,129.26
2023-02-28T07:37:27.281Z,134.68
2023-02-28T07:41:27.620Z,140.25
2023-02-28T07:45:27.466Z,141.41
2023-02-28T07:49:27.879Z,144.29
2023-02-28T07:53:27.691Z,177.36
2023-02-28T07:57:27.790Z,168.38
2023-02-28T08:01:28.143Z,170.30
2023-02-28T08:05:27.822Z,171.23
2023-02-28T08:09:27.826Z,171.71
2023-02-28T08:13:27.848Z,182.53
2023-02-28T08:17:27.806Z,178.12
2023-02-28T08:21:28.153Z,175.25
2023-02-28T08:25:27.817Z,181.76
2023-02-28T08:29:27.983Z,177.39
2023-02-28T08:33:27.929Z,176.03
2023-02-28T08:37:27.900Z,179.08
2023-02-28T08:41:28.359Z,175.69
2023-02-28T08:45:27.979Z,177.85
2023-02-28T08:49:28.435Z,179.89
2023-02-28T08:53:27.767Z,183.12
2023-02-28T08:57:27.727Z,184.12
2023-02-28T09:01:28.065Z,189.40
2023-02-28T09:05:27.652Z,192.56
2023-02-28T09:09:27.944Z,195.54
2023-02-28T09:13:27.619Z,194.24
2023-02-28T09:17:30.655Z,196.42
2023-02-28T09:21:27.757Z,196.31
2023-02-28T09:25:27.436Z,211.23
2023-02-28T09:29:27.945Z,210.71
2023-02-28T09:33:27.422Z,204.21
2023-02-28T09:37:27.496Z,201.63
2023-02-28T09:41:27.532Z,217.30
2023-02-28T09:45:27.427Z,213.17
2023-02-28T09:49:27.371Z,206.48
2023-02-28T09:53:27.450Z,193.95
2023-02-28T09:57:27.454Z,165.29
2023-02-28T10:01:27.646Z,170.32
2023-02-28T10:05:27.118Z,178.72
2023-02-28T10:09:27.072Z,174.32
2023-02-28T10:13:27.078Z,170.39
2023-02-28T10:17:27.503Z,182.12
2023-02-28T10:21:26.968Z,171.69
2023-02-28T10:25:26.951Z,163.23
2023-02-28T10:29:26.944Z,169.68
2023-02-28T10:33:27.007Z,171.64
2023-02-28T10:37:26.820Z,173.57
2023-02-28T10:41:26.974Z,180.76
2023-02-28T10:45:26.941Z,170.49
2023-02-28T10:49:26.989Z,164.56
2023-02-28T10:53:26.979Z,161.83
2023-02-28T10:57:26.994Z,161.86
2023-02-28T11:01:27.252Z,159.90
2023-02-28T11:05:26.803Z,151.75
2023-02-28T11:09:26.690Z,148.54
2023-02-28T11:13:26.966Z,151.07
2023-02-28T11:17:26.764Z,160.30
2023-02-28T11:21:26.696Z,154.09
2023-02-28T11:25:26.558Z,147.17
2023-02-28T11:29:26.983Z,146.45
2023-02-28T11:33:26.728Z,143.13
2023-02-28T11:37:26.939Z,129.89
2023-02-28T11:41:26.550Z,362.33
2023-02-28T11:45:26.432Z,247.99
2023-02-28T11:49:26.388Z,246.66
2023-02-28T11:53:27.335Z,228.95
2023-02-28T11:57:26.290Z,240.20
2023-02-28T12:01:26.496Z,247.53
2023-02-28T12:05:26.235Z,242.68
2023-02-28T12:09:26.211Z,237.34
2023-02-28T12:13:26.291Z,237.89
2023-02-28T12:17:26.533Z,243.38
2023-02-28T12:21:26.574Z,229.99
2023-02-28T12:25:34.045Z,231.18
2023-02-28T12:29:27.035Z,238.06
2023-02-28T12:33:27.015Z,224.68
2023-02-28T12:37:26.520Z,212.24
2023-02-28T12:41:26.535Z,180.47
2023-02-28T12:45:26.482Z,141.55
2023-02-28T12:49:26.532Z,121.24
2023-02-28T12:53:26.415Z,91.48
2023-02-28T12:57:27.046Z,54.17
2023-02-28T13:01:26.756Z,77.10
2023-02-28T13:05:27.044Z,81.84
2023-02-28T13:09:26.514Z,75.71
2023-02-28T13:13:26.449Z,72.43
2023-02-28T13:17:26.421Z,74.08
2023-02-28T13:21:26.511Z,77.86
2023-02-28T13:25:26.344Z,84.75
2023-02-28T13:29:26.334Z,84.66
2023-02-28T13:33:26.565Z,86.44
2023-02-28T13:37:26.316Z,78.78
2023-02-28T13:41:26.212Z,67.10
2023-02-28T13:45:26.526Z,56.68
2023-02-28T13:49:26.162Z,81.40
2023-02-28T13:53:26.235Z,81.31
2023-02-28T13:57:26.315Z,74.70
2023-02-28T14:01:26.515Z,73.17
2023-02-28T14:05:26.677Z,43.61
2023-02-28T14:09:26.687Z,24.07
2023-02-28T14:13:26.852Z,25.44
2023-02-28T14:17:26.852Z,33.07
2023-02-28T14:21:27.053Z,28.39
2023-02-28T14:25:27.945Z,37.94
2023-02-28T14:29:27.114Z,39.72
2023-02-28T14:33:27.071Z,37.89
2023-02-28T14:37:27.054Z,56.50
2023-02-28T14:41:26.996Z,61.56
2023-02-28T14:45:26.942Z,62.74
2023-02-28T14:49:26.953Z,72.05
2023-02-28T14:53:26.896Z,69.11
2023-02-28T14:57:26.885Z,74.41
2023-02-28T15:01:26.825Z,75.09
2023-02-28T15:05:27.081Z,84.03
2023-02-28T15:09:26.753Z,70.75
2023-02-28T15:13:27.077Z,70.95
2023-02-28T15:17:26.818Z,73.00
2023-02-28T15:21:26.842Z,72.24
2023-02-28T15:25:26.810Z,70.48
2023-02-28T15:29:27.083Z,66.82
2023-02-28T15:33:26.817Z,63.06
2023-02-28T15:37:26.785Z,62.90
2023-02-28T15:41:26.832Z,63.90
2023-02-28T15:45:26.802Z,63.82
2023-02-28T15:49:26.818Z,57.57
2023-02-28T15:53:26.879Z,57.79
2023-02-28T15:57:26.955Z,57.51
2023-02-28T16:01:27.294Z,54.27
2023-02-28T16:05:27.179Z,56.31
2023-02-28T16:09:27.302Z,55.57
2023-02-28T16:13:27.488Z,49.56
2023-02-28T16:17:27.648Z,55.94
2023-02-28T16:21:28.548Z,53.66
2023-02-28T16:25:28.019Z,52.46
2023-02-28T16:29:28.235Z,52.83
2023-02-28T16:33:28.216Z,51.58
2023-02-28T16:37:28.164Z,50.70
2023-02-28T16:41:28.643Z,49.19
2023-02-28T16:45:28.092Z,44.34
2023-02-28T16:49:28.061Z,45.03
2023-02-28T16:53:28.016Z,42.94
2023-02-28T16:57:27.997Z,47.06
2023-02-28T17:01:28.373Z,42.49
2023-02-28T17:05:27.905Z,41.40
2023-02-28T17:09:39.981Z,38.00
2023-02-28T17:13:28.851Z,40.27
2023-02-28T17:17:27.788Z,34.92
2023-02-28T17:21:27.780Z,35.52
2023-02-28T17:25:27.876Z,40.67
2023-02-28T17:29:28.071Z,35.13
2023-02-28T17:33:28.291Z,33.22
2023-02-28T17:37:28.497Z,36.50
2023-02-28T17:41:28.476Z,35.21
2023-02-28T17:45:28.423Z,35.44
2023-02-28T17:49:28.367Z,33.83
2023-02-28T17:53:28.341Z,35.89
2023-02-28T17:57:28.300Z,38.91
2023-02-28T18:01:28.322Z,33.37
2023-02-28T18:05:28.222Z,34.33
2023-02-28T18:09:28.174Z,35.62
2023-02-28T18:13:28.154Z,35.07
2023-02-28T18:17:28.140Z,34.24
2023-02-28T18:21:28.588Z,33.21
2023-02-28T18:25:28.086Z,33.99
2023-02-28T18:29:28.002Z,33.21
2023-02-28T18:33:27.991Z,32.50
2023-02-28T18:37:27.980Z,33.29
2023-02-28T18:41:27.905Z,31.72
2023-02-28T18:45:27.869Z,30.10
2023-02-28T18:49:27.909Z,29.45
2023-02-28T18:53:28.084Z,28.88
2023-02-28T18:57:28.285Z,34.29
2023-02-28T19:01:28.505Z,25.91
2023-02-28T19:05:28.713Z,29.36
2023-02-28T19:09:28.924Z,28.49
2023-02-28T19:13:29.136Z,28.80
2023-02-28T19:17:29.315Z,28.44
2023-02-28T19:21:29.298Z,34.03
2023-02-28T19:25:29.255Z,29.30
2023-02-28T19:29:29.248Z,35.53
2023-02-28T19:33:29.218Z,43.83
2023-02-28T19:37:29.146Z,33.77
2023-02-28T19:41:29.395Z,37.28
2023-02-28T19:45:29.120Z,35.44
2023-02-28T19:49:29.064Z,34.44
2023-02-28T19:53:28.996Z,35.53
2023-02-28T19:57:29.005Z,35.18
2023-02-28T20:01:29.017Z,32.16
2023-02-28T20:05:28.917Z,28.92
2023-02-28T20:09:28.890Z,28.60
2023-02-28T20:13:28.866Z,30.46
2023-02-28T20:17:28.803Z,31.96
2023-02-28T20:21:28.750Z,27.34
2023-02-28T20:25:28.746Z,31.98
2023-02-28T20:29:28.704Z,27.65
2023-02-28T20:33:28.868Z,26.19
2023-02-28T20:37:28.671Z,30.10
2023-02-28T20:41:28.851Z,31.69
2023-02-28T20:45:29.042Z,25.22
2023-02-28T20:49:29.223Z,26.31
2023-02-28T20:53:29.448Z,33.04
2023-02-28T20:57:29.408Z,34.02
2023-02-28T21:01:29.389Z,36.23
2023-02-28T21:05:29.499Z,38.34
2023-02-28T21:09:29.277Z,33.81
2023-02-28T21:13:29.248Z,25.24
2023-02-28T21:17:29.217Z,32.03
2023-02-28T21:21:29.177Z,32.51
2023-02-28T21:25:29.143Z,33.53
2023-02-28T21:29:29.106Z,44.23
2023-02-28T21:33:29.069Z,53.53
2023-02-28T21:37:29.040Z,60.16
2023-02-28T21:41:29.007Z,65.19
2023-02-28T21:45:29.083Z,64.42
2023-02-28T21:49:28.931Z,64.94
2023-02-28T21:53:28.854Z,60.81
2023-02-28T21:57:28.934Z,56.33
2023-02-28T22:01:28.783Z,45.74
2023-02-28T22:05:28.865Z,49.82
2023-02-28T22:09:28.738Z,51.30
2023-02-28T22:13:28.689Z,63.16
2023-02-28T22:17:28.649Z,63.20
2023-02-28T22:21:28.615Z,66.10
2023-02-28T22:25:28.581Z,72.29
2023-02-28T22:29:28.563Z,67.94
2023-02-28T22:33:28.671Z,65.85
2023-02-28T22:37:28.743Z,63.00
2023-02-28T22:41:28.896Z,60.30
2023-02-28T22:45:29.015Z,66.07
2023-02-28T22:49:29.207Z,62.08
2023-02-28T22:53:29.356Z,58.69
2023-02-28T22:57:29.524Z,57.92
2023-02-28T23:01:29.717Z,52.56
2023-02-28T23:05:29.917Z,51.24
2023-02-28T23:09:30.152Z,47.75
2023-02-28T23:13:30.347Z,45.32
2023-02-28T23:17:30.557Z,50.05
2023-02-28T23:21:30.768Z,52.09
2023-02-28T23:25:31.245Z,55.74
2023-02-28T23:29:31.289Z,57.05
2023-02-28T23:33:31.422Z,61.33
2023-02-28T23:37:32.230Z,64.26
2023-02-28T23:41:31.333Z,63.22
2023-02-28T23:45:31.379Z,59.06
2023-02-28T23:49:31.255Z,53.54
2023-02-28T23:53:31.228Z,55.45
2023-02-28T23:57:31.193Z,58.19
